createdAt,value
2022-08-19T00:02:52.437Z,0.00
2022-08-19T00:07:52.152Z,0.00
2022-08-19T00:12:52.178Z,0.00
2022-08-19T00:17:52.014Z,0.00
2022-08-19T00:22:52.073Z,0.00
2022-08-19T00:27:51.886Z,0.00
2022-08-19T00:32:51.962Z,0.00
2022-08-19T00:37:51.772Z,0.00
2022-08-19T00:42:51.806Z,0.00
2022-08-19T00:47:51.805Z,0.00
2022-08-19T00:52:51.658Z,0.00
2022-08-19T00:57:51.536Z,0.00
2022-08-19T01:02:51.580Z,0.00
2022-08-19T01:07:51.385Z,0.00
2022-08-19T01:12:51.429Z,0.00
2022-08-19T01:17:51.266Z,0.00
2022-08-19T01:22:51.426Z,0.00
2022-08-19T01:27:53.294Z,0.00
2022-08-19T01:32:51.089Z,0.00
2022-08-19T01:37:51.013Z,0.00
2022-08-19T01:42:50.933Z,0.00
2022-08-19T01:48:01.109Z,0.00
2022-08-19T01:53:03.658Z,0.00
2022-08-19T01:57:51.745Z,0.00
2022-08-19T02:02:50.690Z,0.00
2022-08-19T02:07:50.627Z,0.00
2022-08-19T02:12:50.572Z,0.00
2022-08-19T02:17:50.508Z,0.00
2022-08-19T02:22:50.456Z,0.00
2022-08-19T02:27:50.400Z,0.00
2022-08-19T02:32:50.310Z,0.00
2022-08-19T02:37:50.249Z,0.00
2022-08-19T02:42:50.201Z,0.00
2022-08-19T02:47:50.122Z,0.00
2022-08-19T02:52:50.054Z,0.00
2022-08-19T02:57:50.167Z,0.00
2022-08-19T03:02:49.966Z,0.00
2022-08-19T03:07:49.895Z,0.00
2022-08-19T03:12:49.815Z,0.00
2022-08-19T03:17:49.745Z,0.00
2022-08-19T03:22:49.668Z,0.00
2022-08-19T03:27:49.663Z,0.00
2022-08-19T03:32:51.403Z,0.00
2022-08-19T03:37:50.489Z,4.00
2022-08-19T03:42:49.678Z,4.00
2022-08-19T03:47:49.362Z,8.00
2022-08-19T03:52:49.337Z,12.00
2022-08-19T03:57:49.238Z,16.00
2022-08-19T04:03:00.222Z,24.00
2022-08-19T04:07:50.110Z,28.00
2022-08-19T04:12:49.049Z,44.00
2022-08-19T04:17:48.985Z,60.00
2022-08-19T04:22:48.917Z,72.00
2022-08-19T04:27:48.852Z,92.00
2022-08-19T04:32:48.807Z,160.00
2022-08-19T04:37:48.728Z,192.00
2022-08-19T04:42:48.746Z,216.00
2022-08-19T04:47:58.427Z,240.00
2022-08-19T04:52:49.587Z,320.00
2022-08-19T04:57:48.503Z,320.00
2022-08-19T05:02:48.398Z,316.00
2022-08-19T05:07:48.361Z,336.00
2022-08-19T05:12:48.265Z,328.00
2022-08-19T05:17:48.217Z,348.00
2022-08-19T05:22:48.254Z,340.00
2022-08-19T05:27:48.086Z,364.00
2022-08-19T05:32:48.041Z,408.00
2022-08-19T05:37:47.953Z,392.00
2022-08-19T05:42:55.433Z,348.00
2022-08-19T05:47:48.837Z,336.00
2022-08-19T05:52:50.678Z,388.00
2022-08-19T05:57:47.691Z,436.00
2022-08-19T06:02:47.735Z,372.00
2022-08-19T06:07:47.609Z,448.00
2022-08-19T06:12:47.685Z,532.00
2022-08-19T06:17:47.524Z,612.00
2022-08-19T06:22:47.384Z,600.00
2022-08-19T06:28:14.134Z,620.00
2022-08-19T06:32:48.264Z,632.00
2022-08-19T06:37:47.227Z,676.00
2022-08-19T06:42:55.111Z,828.00
2022-08-19T06:47:48.045Z,912.00
2022-08-19T06:52:46.973Z,956.00
2022-08-19T06:57:46.966Z,880.00
2022-08-19T07:02:52.178Z,1032.00
2022-08-19T07:07:47.786Z,1116.00
2022-08-19T07:12:46.738Z,1340.00
2022-08-19T07:17:48.003Z,1396.00
2022-08-19T07:22:47.620Z,1260.00
2022-08-19T07:27:46.586Z,1316.00
2022-08-19T07:32:47.460Z,1192.00
2022-08-19T07:37:46.390Z,1020.00
2022-08-19T07:42:46.330Z,1164.00
2022-08-19T07:47:49.616Z,1504.00
2022-08-19T07:52:49.136Z,1424.00
2022-08-19T07:57:46.127Z,2052.00
2022-08-19T08:02:46.073Z,2124.00
2022-08-19T08:07:46.301Z,1612.00
2022-08-19T08:13:05.843Z,1992.00
2022-08-19T08:17:49.443Z,2452.00
2022-08-19T08:22:45.892Z,1952.00
2022-08-19T08:27:45.777Z,2540.00
2022-08-19T08:32:45.690Z,2728.00
2022-08-19T08:37:45.608Z,3716.00
2022-08-19T08:42:46.296Z,4116.00
2022-08-19T08:47:45.489Z,3492.00
2022-08-19T08:52:45.426Z,3392.00
2022-08-19T08:57:45.389Z,3656.00
2022-08-19T09:02:45.302Z,4372.00
2022-08-19T09:07:47.489Z,4588.00
2022-08-19T09:12:45.164Z,4452.00
2022-08-19T09:17:45.119Z,5832.00
2022-08-19T09:22:46.041Z,8884.00
2022-08-19T09:27:45.165Z,6912.00
2022-08-19T09:32:44.912Z,4548.00
2022-08-19T09:37:44.924Z,4616.00
2022-08-19T09:42:50.169Z,6312.00
2022-08-19T09:47:45.716Z,5176.00
2022-08-19T09:52:55.512Z,6828.00
2022-08-19T09:57:45.587Z,4712.00
2022-08-19T10:02:44.731Z,3500.00
2022-08-19T10:07:44.449Z,4576.00
2022-08-19T10:12:44.420Z,7216.00
2022-08-19T10:17:48.234Z,8532.00
2022-08-19T10:22:45.272Z,8208.00
2022-08-19T10:27:46.572Z,16960.00
2022-08-19T10:32:46.418Z,13432.00
2022-08-19T10:37:57.320Z,6336.00
2022-08-19T10:42:44.989Z,13596.00
2022-08-19T10:47:43.973Z,16576.00
2022-08-19T10:52:50.028Z,10376.00
2022-08-19T10:58:01.745Z,9480.00
2022-08-19T11:02:44.789Z,11732.00
2022-08-19T11:07:43.682Z,13096.00
2022-08-19T11:12:43.613Z,11204.00
2022-08-19T11:17:43.584Z,8876.00
2022-08-19T11:22:43.495Z,7128.00
2022-08-19T11:27:43.434Z,4980.00
2022-08-19T11:32:49.515Z,5672.00
2022-08-19T11:37:43.564Z,8976.00
2022-08-19T11:42:43.249Z,10480.00
2022-08-19T11:47:43.178Z,7120.00
2022-08-19T11:52:43.102Z,4668.00
2022-08-19T11:57:43.051Z,4160.00
2022-08-19T12:02:43.791Z,5328.00
2022-08-19T12:07:42.901Z,6332.00
2022-08-19T12:12:42.845Z,4168.00
2022-08-19T12:17:42.770Z,2360.00
2022-08-19T12:22:42.750Z,2648.00
2022-08-19T12:27:46.848Z,5068.00
2022-08-19T12:32:43.844Z,7240.00
2022-08-19T12:37:42.506Z,7088.00
2022-08-19T12:42:42.466Z,6544.00
2022-08-19T12:47:42.386Z,5992.00
2022-08-19T12:52:42.337Z,6836.00
2022-08-19T12:57:42.269Z,6956.00
2022-08-19T13:02:42.238Z,6908.00
2022-08-19T13:07:42.132Z,6820.00
2022-08-19T13:12:42.113Z,5908.00
2022-08-19T13:17:42.001Z,4820.00
2022-08-19T13:22:41.943Z,5704.00
2022-08-19T13:27:41.872Z,3092.00
2022-08-19T13:32:41.814Z,2768.00
2022-08-19T13:37:41.743Z,3448.00
2022-08-19T13:42:41.797Z,3312.00
2022-08-19T13:47:42.488Z,3032.00
2022-08-19T13:52:41.559Z,3096.00
2022-08-19T13:57:41.486Z,2900.00
2022-08-19T14:02:41.428Z,2016.00
2022-08-19T14:07:41.388Z,2548.00
2022-08-19T14:12:41.298Z,2896.00
2022-08-19T14:17:41.263Z,2768.00
2022-08-19T14:22:41.153Z,2672.00
2022-08-19T14:27:41.092Z,2160.00
2022-08-19T14:32:41.023Z,1912.00
2022-08-19T14:37:45.413Z,1872.00
2022-08-19T14:42:41.886Z,1988.00
2022-08-19T14:47:41.058Z,2088.00
2022-08-19T14:52:40.997Z,1688.00
2022-08-19T14:57:40.707Z,1536.00
2022-08-19T15:02:40.643Z,1384.00
2022-08-19T15:07:40.539Z,1872.00
2022-08-19T15:12:40.483Z,1820.00
2022-08-19T15:17:45.313Z,1548.00
2022-08-19T15:22:41.372Z,1304.00
2022-08-19T15:27:40.295Z,1252.00
2022-08-19T15:32:40.243Z,1156.00
2022-08-19T15:37:40.164Z,1176.00
2022-08-19T15:42:40.108Z,1752.00
2022-08-19T15:47:40.025Z,2932.00
2022-08-19T15:52:49.128Z,3304.00
2022-08-19T15:57:40.974Z,3244.00
2022-08-19T16:02:39.826Z,2632.00
2022-08-19T16:07:39.797Z,2424.00
2022-08-19T16:12:39.698Z,2240.00
2022-08-19T16:17:39.639Z,2208.00
2022-08-19T16:22:39.569Z,2092.00
2022-08-19T16:27:39.523Z,1308.00
2022-08-19T16:32:39.451Z,1296.00
2022-08-19T16:37:39.372Z,1180.00
2022-08-19T16:42:39.350Z,1076.00
2022-08-19T16:47:39.240Z,1204.00
2022-08-19T16:52:39.198Z,1336.00
2022-08-19T16:57:39.135Z,1288.00
2022-08-19T17:02:39.060Z,1204.00
2022-08-19T17:07:38.986Z,1224.00
2022-08-19T17:12:38.950Z,884.00
2022-08-19T17:17:38.839Z,652.00
2022-08-19T17:22:38.790Z,472.00
2022-08-19T17:27:38.739Z,420.00
2022-08-19T17:32:38.649Z,368.00
2022-08-19T17:37:38.591Z,324.00
2022-08-19T17:42:38.552Z,268.00
2022-08-19T17:47:38.512Z,220.00
2022-08-19T17:52:38.416Z,152.00
2022-08-19T17:57:38.396Z,76.00
2022-08-19T18:02:38.256Z,48.00
2022-08-19T18:07:38.178Z,28.00
2022-08-19T18:12:39.129Z,24.00
2022-08-19T18:17:38.066Z,16.00
2022-08-19T18:22:38.005Z,8.00
2022-08-19T18:27:37.894Z,4.00
2022-08-19T18:32:37.830Z,4.00
2022-08-19T18:37:37.767Z,4.00
2022-08-19T18:42:37.711Z,0.00
2022-08-19T18:47:37.672Z,0.00
2022-08-19T18:52:37.571Z,0.00
2022-08-19T18:57:37.502Z,0.00
2022-08-19T19:02:37.493Z,0.00
2022-08-19T19:07:37.551Z,0.00
2022-08-19T19:12:37.311Z,0.00
2022-08-19T19:17:37.234Z,0.00
2022-08-19T19:22:37.233Z,0.00
2022-08-19T19:27:37.163Z,0.00
2022-08-19T19:32:39.215Z,0.00
2022-08-19T19:37:37.018Z,0.00
2022-08-19T19:42:37.014Z,0.00
2022-08-19T19:47:36.849Z,0.00
2022-08-19T19:52:36.799Z,0.00
2022-08-19T19:57:36.730Z,0.00
2022-08-19T20:02:36.709Z,0.00
2022-08-19T20:07:36.602Z,0.00
2022-08-19T20:12:36.782Z,0.00
2022-08-19T20:17:36.489Z,0.00
2022-08-19T20:22:36.475Z,0.00
2022-08-19T20:27:38.888Z,0.00
2022-08-19T20:32:36.306Z,0.00
2022-08-19T20:37:36.237Z,0.00
2022-08-19T20:42:36.197Z,0.00
2022-08-19T20:47:36.127Z,0.00
2022-08-19T20:52:36.057Z,0.00
2022-08-19T20:57:36.009Z,0.00
2022-08-19T21:02:35.930Z,0.00
2022-08-19T21:07:39.322Z,0.00
2022-08-19T21:12:35.794Z,0.00
2022-08-19T21:17:35.991Z,0.00
2022-08-19T21:22:35.662Z,0.00
2022-08-19T21:27:35.611Z,0.00
2022-08-19T21:32:35.526Z,0.00
2022-08-19T21:37:35.466Z,0.00
2022-08-19T21:42:35.453Z,0.00
2022-08-19T21:47:35.408Z,0.00
2022-08-19T21:52:35.306Z,0.00
2022-08-19T21:57:35.242Z,0.00
2022-08-19T22:02:35.177Z,0.00
2022-08-19T22:07:35.088Z,0.00
2022-08-19T22:12:35.076Z,0.00
2022-08-19T22:17:34.969Z,0.00
2022-08-19T22:22:34.990Z,0.00
2022-08-19T22:27:34.843Z,0.00
2022-08-19T22:32:34.808Z,0.00
2022-08-19T22:37:34.715Z,0.00
2022-08-19T22:42:34.686Z,0.00
2022-08-19T22:47:35.553Z,0.00
2022-08-19T22:52:34.838Z,0.00
2022-08-19T22:57:34.480Z,0.00
2022-08-19T23:02:34.510Z,0.00
2022-08-19T23:07:34.336Z,0.00
2022-08-19T23:12:34.377Z,0.00
2022-08-19T23:17:34.307Z,0.00
2022-08-19T23:22:34.272Z,0.00
2022-08-19T23:27:34.248Z,0.00
2022-08-19T23:32:34.019Z,0.00
2022-08-19T23:37:33.950Z,0.00
2022-08-19T23:42:33.882Z,0.00
2022-08-19T23:47:33.883Z,0.00
2022-08-19T23:52:33.821Z,0.00
2022-08-19T23:57:33.683Z,0.00
